Time;durP1;ratioP1;P1;durP2;ratioP2;P2;SDS_P1;SDS_P2;PMS_P1;PMS_P2;Temp;Humidity;BMP_temperature;BMP_pressure;BME280_temperature;BME280_humidity;BME280_pressure;Samples;Min_cycle;Max_cycle;Signal;HPM_P1;HPM_P2
2022/02/04 00:04:44;;;;;;;;;;;;;;;;;;2101899;28;20538;-76
2022/02/04 00:23:51;;;;;;;;;;;;;;;;;;2096736;28;19933;-77
2022/02/04 00:24:54;;;;;;;;;;;;;;;;;;2101916;28;19928;-78
2022/02/04 00:26:05;;;;;;;;;;;;;;;;;;2101186;28;20752;-78
2022/02/04 00:27:26;;;;;;;;;;;;;;;;;;2101544;28;19932;-79
2022/02/04 00:29:51;;;;;;;;;;;;;;;;;;2101905;28;20834;-79
2022/02/04 00:31:14;;;;;;;;;;;;;;;;;;2101533;28;19928;-78
2022/02/04 00:32:19;;;;;;;;;;;;;;;;;;2101058;28;19929;-78
2022/02/04 00:33:22;;;;;;;;;;;;;;;;;;2101508;28;19956;-79
2022/02/04 00:34:25;;;;;;;;;;;;;;;;;;2101296;28;19929;-78
2022/02/04 00:35:54;;;;;;;;;;;;;;;;;;2101002;28;20766;-79
2022/02/04 00:38:23;;;;;;;;;;;;;;;;;;2101184;28;19929;-79
2022/02/04 00:39:31;;;;;;;;;;;;;;;;;;2101435;28;19932;-78
2022/02/04 00:40:38;;;;;;;;;;;;;;;;;;2101432;28;19933;-78
2022/02/04 00:41:42;;;;;;;;;;;;;;;;;;2101406;28;19929;-79
2022/02/04 00:42:44;;;;;;;;;;;;;;;;;;2101073;28;20019;-79
2022/02/04 00:43:49;;;;;;;;;;;;;;;;;;2101392;28;19925;-77
2022/02/04 00:44:58;;;;;;;;;;;;;;;;;;2101258;28;20814;-79
2022/02/04 00:47:15;;;;;;;;;;;;;;;;;;2101847;28;19932;-77
2022/02/04 00:49:33;;;;;;;;;;;;;;;;;;2101892;28;20006;-79
2022/02/04 00:50:51;;;;;;;;;;;;;;;;;;2101827;28;19986;-77
2022/02/04 00:52:13;;;;;;;;;;;;;;;;;;2101835;28;19928;-77
2022/02/04 00:53:22;;;;;;;;;;;;;;;;;;2100968;28;19956;-78
2022/02/04 00:54:38;;;;;;;;;;;;;;;;;;2100954;28;19925;-77
2022/02/04 00:56:06;;;;;;;;;;;;;;;;;;2101190;28;20616;-78
2022/02/04 00:57:17;;;;;;;;;;;;;;;;;;2101047;28;20656;-78
2022/02/04 01:26:39;;;;;;;;;;;;;;;;;;2101526;28;19932;-78
2022/02/04 01:27:46;;;;;;;;;;;;;;;;;;2100747;28;19928;-77
2022/02/04 01:28:48;;;;;;;;;;;;;;;;;;2100831;28;20006;-77
2022/02/04 01:30:00;;;;;;;;;;;;;;;;;;2100617;28;20764;-78
2022/02/04 01:31:03;;;;;;;;;;;;;;;;;;2100931;28;19967;-76
2022/02/04 01:32:07;;;;;;;;;;;;;;;;;;2100642;28;20781;-78
2022/02/04 01:33:12;;;;;;;;;;;;;;;;;;2100787;28;19929;-77
2022/02/04 01:34:14;;;;;;;;;;;;;;;;;;2100987;28;19929;-78
2022/02/04 01:35:17;;;;;;;;;;;;;;;;;;2100748;28;19929;-77
2022/02/04 01:36:19;;;;;;;;;;;;;;;;;;2100729;28;20655;-77
2022/02/04 01:37:21;;;;;;;;;;;;;;;;;;2100757;28;20714;-77
2022/02/04 01:38:23;;;;;;;;;;;;;;;;;;2100860;28;19929;-79
2022/02/04 01:39:26;;;;;;;;;;;;;;;;;;2100739;28;19929;-77
2022/02/04 01:40:29;;;;;;;;;;;;;;;;;;2100676;28;19928;-77
2022/02/04 01:41:30;;;;;;;;;;;;;;;;;;2100849;28;19954;-78
2022/02/04 01:42:33;;;;;;;;;;;;;;;;;;2100786;28;19982;-78
2022/02/04 01:43:35;;;;;;;;;;;;;;;;;;2100857;28;19925;-76
2022/02/04 01:44:36;;;;;;;;;;;;;;;;;;2100547;28;19925;-78
2022/02/04 01:45:38;;;;;;;;;;;;;;;;;;2100451;28;20633;-78
2022/02/04 01:46:39;;;;;;;;;;;;;;;;;;2100436;28;19935;-77
2022/02/04 01:47:41;;;;;;;;;;;;;;;;;;2100833;28;19980;-77
2022/02/04 01:48:43;;;;;;;;;;;;;;;;;;2100598;28;20614;-77
2022/02/04 01:49:46;;;;;;;;;;;;;;;;;;2100524;28;19929;-77
2022/02/04 01:50:48;;;;;;;;;;;;;;;;;;2100854;28;19928;-78
2022/02/04 01:51:50;;;;;;;;;;;;;;;;;;2100583;28;19929;-77
2022/02/04 01:52:52;;;;;;;;;;;;;;;;;;2100713;28;19929;-78
2022/02/04 01:53:54;;;;;;;;;;;;;;;;;;2100907;28;19933;-79
2022/02/04 01:54:58;;;;;;;;;;;;;;;;;;2100927;28;19933;-78
2022/02/04 01:55:59;;;;;;;;;;;;;;;;;;2100796;28;20651;-76
2022/02/04 01:57:01;;;;;;;;;;;;;;;;;;2100539;28;19971;-77
2022/02/04 01:58:03;;;;;;;;;;;;;;;;;;2101339;28;20818;-77
2022/02/04 01:59:05;;;;;;;;;;;;;;;;;;2100715;28;19925;-78
2022/02/04 02:00:07;;;;;;;;;;;;;;;;;;2100885;28;19925;-78
2022/02/04 02:01:10;;;;;;;;;;;;;;;;;;2101401;28;19928;-77
2022/02/04 02:02:13;;;;;;;;;;;;;;;;;;2100383;28;20803;-78
2022/02/04 02:03:15;;;;;;;;;;;;;;;;;;2100711;28;19966;-77
2022/02/04 02:04:16;;;;;;;;;;;;;;;;;;2100817;28;19940;-78
2022/02/04 02:05:18;;;;;;;;;;;;;;;;;;2100606;28;20054;-77
2022/02/04 02:06:19;;;;;;;;;;;;;;;;;;2100722;28;19925;-77
2022/02/04 02:07:24;;;;;;;;;;;;;;;;;;2100497;28;20604;-77
2022/02/04 02:08:26;;;;;;;;;;;;;;;;;;2100532;28;19928;-78
2022/02/04 02:09:56;;;;;;;;;;;;;;;;;;2100614;28;20675;-78
2022/02/04 02:10:53;;;;;;;;;;;;;;;;;;2100592;28;20521;-78
2022/02/04 02:11:59;;;;;;;;;;;;;;;;;;2100783;28;19924;-77
2022/02/04 02:14:12;;;;;;;;;;;;;;;;;;2100434;28;19932;-78
2022/02/04 02:37:00;;;;;;;;;;;;;;;;;;2101137;28;20060;-78
2022/02/04 02:40:01;;;;;;;;;;;;;;;;;;2101267;28;19924;-78
2022/02/04 02:47:27;;;;;;;;;;;;;;;;;;2101186;28;19928;-77
2022/02/04 02:55:01;;;;;;;;;;;;;;;;;;2101049;28;19928;-78
2022/02/04 02:59:09;;;;;;;;;;;;;;;;;;2101376;28;19925;-79
2022/02/04 03:00:26;;;;;;;;;;;;;;;;;;2100910;28;19931;-78
2022/02/04 03:01:30;;;;;;;;;;;;;;;;;;2100440;28;19999;-77
2022/02/04 03:02:34;;;;;;;;;;;;;;;;;;2101665;28;19925;-77
2022/02/04 03:03:37;;;;;;;;;;;;;;;;;;2102525;28;19928;-77
2022/02/04 03:04:41;;;;;;;;;;;;;;;;;;2102087;28;19943;-78
2022/02/04 03:05:47;;;;;;;;;;;;;;;;;;2102108;28;20746;-77
2022/02/04 03:06:53;;;;;;;;;;;;;;;;;;2102735;28;20116;-79
2022/02/04 03:08:08;;;;;;;;;;;;;;;;;;2102763;28;19976;-77
2022/02/04 03:09:21;;;;;;;;;;;;;;;;;;2102363;28;19935;-77
2022/02/04 03:10:32;;;;;;;;;;;;;;;;;;2102373;28;19928;-77
2022/02/04 03:11:40;;;;;;;;;;;;;;;;;;2102161;28;19925;-77
2022/02/04 03:12:46;;;;;;;;;;;;;;;;;;2102116;28;19929;-78
2022/02/04 03:14:00;;;;;;;;;;;;;;;;;;2102281;28;20835;-78
2022/02/04 03:15:10;;;;;;;;;;;;;;;;;;2101998;28;19975;-77
2022/02/04 03:16:18;;;;;;;;;;;;;;;;;;2102146;28;19929;-77
2022/02/04 03:17:25;;;;;;;;;;;;;;;;;;2101794;28;20785;-77
2022/02/04 03:18:34;;;;;;;;;;;;;;;;;;2102304;28;19928;-78
2022/02/04 03:19:42;;;;;;;;;;;;;;;;;;2102229;28;19933;-76
2022/02/04 03:20:49;;;;;;;;;;;;;;;;;;2100940;28;20055;-77
2022/02/04 03:21:55;;;;;;;;;;;;;;;;;;2102615;28;20777;-78
2022/02/04 03:22:59;;;;;;;;;;;;;;;;;;2102400;28;19928;-78
2022/02/04 03:24:10;;;;;;;;;;;;;;;;;;2101343;28;20063;-77
2022/02/04 03:25:21;;;;;;;;;;;;;;;;;;2101023;28;19924;-79
2022/02/04 03:26:42;;;;;;;;;;;;;;;;;;2101231;28;19932;-79
2022/02/04 03:27:54;;;;;;;;;;;;;;;;;;2101206;28;20731;-79
2022/02/04 03:29:00;;;;;;;;;;;;;;;;;;2101004;28;19936;-78
2022/02/04 03:30:16;;;;;;;;;;;;;;;;;;2101270;28;19925;-79
2022/02/04 03:31:26;;;;;;;;;;;;;;;;;;2101229;28;20711;-79
2022/02/04 03:32:32;;;;;;;;;;;;;;;;;;2101168;28;19925;-79
2022/02/04 03:33:35;;;;;;;;;;;;;;;;;;2101271;28;19925;-79
2022/02/04 03:34:40;;;;;;;;;;;;;;;;;;2101063;28;20059;-78
2022/02/04 03:35:47;;;;;;;;;;;;;;;;;;2101355;28;19925;-79
2022/02/04 03:36:49;;;;;;;;;;;;;;;;;;2101381;28;20059;-77
2022/02/04 03:38:03;;;;;;;;;;;;;;;;;;2101570;28;19928;-78
2022/02/04 03:39:08;;;;;;;;;;;;;;;;;;2101719;28;19925;-77
2022/02/04 03:40:19;;;;;;;;;;;;;;;;;;2101259;28;19925;-76
2022/02/04 03:41:29;;;;;;;;;;;;;;;;;;2101175;28;20807;-78
2022/02/04 03:42:37;;;;;;;;;;;;;;;;;;2101542;28;19970;-78
2022/02/04 03:43:39;;;;;;;;;;;;;;;;;;2101827;28;19943;-78
2022/02/04 03:44:49;;;;;;;;;;;;;;;;;;2101703;28;20936;-78
2022/02/04 03:45:58;;;;;;;;;;;;;;;;;;2102513;28;20027;-78
2022/02/04 03:46:59;;;;;;;;;;;;;;;;;;2101935;28;19925;-78
2022/02/04 03:48:08;;;;;;;;;;;;;;;;;;2102767;28;20846;-77
2022/02/04 03:49:13;;;;;;;;;;;;;;;;;;2102523;28;19925;-78
2022/02/04 03:50:39;;;;;;;;;;;;;;;;;;2093309;28;20102;-77
2022/02/04 03:51:49;;;;;;;;;;;;;;;;;;2102524;28;20755;-79
2022/02/04 03:52:57;;;;;;;;;;;;;;;;;;2102891;28;19924;-77
2022/02/04 03:54:14;;;;;;;;;;;;;;;;;;2102946;28;19979;-77
2022/02/04 03:55:36;;;;;;;;;;;;;;;;;;2102655;28;20826;-77
2022/02/04 03:56:58;;;;;;;;;;;;;;;;;;2102642;28;19929;-79
2022/02/04 03:58:19;;;;;;;;;;;;;;;;;;2102493;28;19925;-77
2022/02/04 03:59:41;;;;;;;;;;;;;;;;;;2101969;28;19933;-79
2022/02/04 04:01:03;;;;;;;;;;;;;;;;;;2101401;28;20601;-77
2022/02/04 04:02:24;;;;;;;;;;;;;;;;;;2101664;28;20552;-77
2022/02/04 04:03:48;;;;;;;;;;;;;;;;;;2101346;28;19925;-79
2022/02/04 04:05:10;;;;;;;;;;;;;;;;;;2101573;28;20684;-78
2022/02/04 04:06:32;;;;;;;;;;;;;;;;;;2101103;28;20735;-80
2022/02/04 04:07:54;;;;;;;;;;;;;;;;;;2100799;28;20002;-77
2022/02/04 04:09:15;;;;;;;;;;;;;;;;;;2100960;28;20776;-78
2022/02/04 04:10:40;;;;;;;;;;;;;;;;;;2100432;28;19928;-78
2022/02/04 04:12:02;;;;;;;;;;;;;;;;;;2100637;28;19929;-79
2022/02/04 04:13:23;;;;;;;;;;;;;;;;;;2101509;28;19998;-78
2022/02/04 04:14:48;;;;;;;;;;;;;;;;;;2100944;28;20043;-78
2022/02/04 04:16:09;;;;;;;;;;;;;;;;;;2101642;28;19932;-78
2022/02/04 04:17:38;;;;;;;;;;;;;;;;;;2101071;28;19931;-78
2022/02/04 04:18:59;;;;;;;;;;;;;;;;;;2101358;28;19924;-78
2022/02/04 04:20:23;;;;;;;;;;;;;;;;;;2101478;28;19924;-79
2022/02/04 04:21:44;;;;;;;;;;;;;;;;;;2101663;28;19931;-79
2022/02/04 04:23:06;;;;;;;;;;;;;;;;;;2101354;28;19928;-78
2022/02/04 04:24:30;;;;;;;;;;;;;;;;;;2101295;28;20682;-79
2022/02/04 04:25:51;;;;;;;;;;;;;;;;;;2102398;28;19936;-78
2022/02/04 04:27:13;;;;;;;;;;;;;;;;;;2101753;28;19924;-78
2022/02/04 04:28:34;;;;;;;;;;;;;;;;;;2102002;28;19928;-79
2022/02/04 04:29:56;;;;;;;;;;;;;;;;;;2101679;28;20059;-80
2022/02/04 04:31:18;;;;;;;;;;;;;;;;;;2102258;28;19929;-79
2022/02/04 04:32:39;;;;;;;;;;;;;;;;;;2101190;28;19929;-78
2022/02/04 04:34:01;;;;;;;;;;;;;;;;;;2101403;28;19929;-78
2022/02/04 04:35:24;;;;;;;;;;;;;;;;;;2101535;28;19933;-78
2022/02/04 04:36:48;;;;;;;;;;;;;;;;;;2101926;28;20719;-78
2022/02/04 04:38:25;;;;;;;;;;;;;;;;;;2101964;28;19924;-78
2022/02/04 04:40:23;;;;;;;;;;;;;;;;;;2096365;28;20696;-78
2022/02/04 04:41:33;;;;;;;;;;;;;;;;;;2102181;28;19929;-78
2022/02/04 04:44:56;;;;;;;;;;;;;;;;;;2101492;28;20650;-79
2022/02/04 05:29:14;;;;;;;;;;;;;;;;;;2092906;28;19925;-77
2022/02/04 05:30:36;;;;;;;;;;;;;;;;;;2092600;28;20671;-77
2022/02/04 05:31:57;;;;;;;;;;;;;;;;;;2089882;28;20821;-77
2022/02/04 05:33:20;;;;;;;;;;;;;;;;;;2090124;28;19925;-77
2022/02/04 05:34:45;;;;;;;;;;;;;;;;;;2093027;28;19932;-77
2022/02/04 05:36:10;;;;;;;;;;;;;;;;;;2093208;28;20716;-78
2022/02/04 05:37:33;;;;;;;;;;;;;;;;;;2092848;28;20057;-78
2022/02/04 05:38:55;;;;;;;;;;;;;;;;;;2093241;28;19929;-77
2022/02/04 05:40:19;;;;;;;;;;;;;;;;;;2092604;28;20127;-79
2022/02/04 05:41:46;;;;;;;;;;;;;;;;;;2091368;28;19992;-77
2022/02/04 05:43:16;;;;;;;;;;;;;;;;;;2099262;28;19925;-76
2022/02/04 05:44:41;;;;;;;;;;;;;;;;;;2099053;28;20737;-77
2022/02/04 05:46:10;;;;;;;;;;;;;;;;;;2090391;28;20054;-77
2022/02/04 05:47:34;;;;;;;;;;;;;;;;;;2092789;28;20032;-77
2022/02/04 05:48:57;;;;;;;;;;;;;;;;;;2093190;28;19929;-79
2022/02/04 05:51:21;;;;;;;;;;;;;;;;;;2093277;28;20729;-77
2022/02/04 05:52:18;;;;;;;;;;;;;;;;;;2092575;28;19929;-78
2022/02/04 05:54:37;;;;;;;;;;;;;;;;;;2099490;28;19994;-79
2022/02/04 05:57:12;;;;;;;;;;;;;;;;;;2101129;28;19924;-76
2022/02/04 05:58:50;;;;;;;;;;;;;;;;;;2101278;28;19932;-76
2022/02/04 06:00:27;;;;;;;;;;;;;;;;;;2100768;28;19928;-76
2022/02/04 06:04:35;;;;;;;;;;;;;;;;;;2101178;28;20785;-78
2022/02/04 06:12:29;;;;;;;;;;;;;;;;;;2092873;28;19929;-77
2022/02/04 06:23:14;;;;;;;;;;;;;;;;;;2096421;28;20792;-79
2022/02/04 06:24:29;;;;;;;;;;;;;;;;;;2096059;28;20083;-79
2022/02/04 06:25:42;;;;;;;;;;;;;;;;;;2091002;28;19972;-78
2022/02/04 06:27:00;;;;;;;;;;;;;;;;;;2095703;28;20779;-79
2022/02/04 06:28:09;;;;;;;;;;;;;;;;;;2096872;28;19929;-79
2022/02/04 06:29:16;;;;;;;;;;;;;;;;;;2095363;28;20040;-77
2022/02/04 06:30:18;;;;;;;;;;;;;;;;;;2090197;28;19936;-79
2022/02/04 06:31:28;;;;;;;;;;;;;;;;;;2098158;28;19935;-77
2022/02/04 06:32:33;;;;;;;;;;;;;;;;;;2095261;28;19936;-78
2022/02/04 06:33:35;;;;;;;;;;;;;;;;;;2096382;28;19979;-75
2022/02/04 06:34:40;;;;;;;;;;;;;;;;;;2098387;28;19987;-78
2022/02/04 06:35:45;;;;;;;;;;;;;;;;;;2096318;28;20012;-78
2022/02/04 06:36:52;;;;;;;;;;;;;;;;;;2090486;28;19928;-78
2022/02/04 06:38:00;;;;;;;;;;;;;;;;;;2090655;28;19929;-77
2022/02/04 06:39:03;;;;;;;;;;;;;;;;;;2089910;28;19929;-75
2022/02/04 06:40:08;;;;;;;;;;;;;;;;;;2090704;28;19933;-77
2022/02/04 06:41:12;;;;;;;;;;;;;;;;;;2091159;28;20794;-75
2022/02/04 06:42:16;;;;;;;;;;;;;;;;;;2093916;28;19960;-76
2022/02/04 06:43:21;;;;;;;;;;;;;;;;;;2090419;28;20664;-77
2022/02/04 06:44:26;;;;;;;;;;;;;;;;;;2097997;28;19979;-79
2022/02/04 06:45:30;;;;;;;;;;;;;;;;;;2098709;28;21246;-77
2022/02/04 06:46:34;;;;;;;;;;;;;;;;;;2099052;28;19936;-68
2022/02/04 06:47:39;;;;;;;;;;;;;;;;;;2090924;28;19929;-63
2022/02/04 06:48:41;;;;;;;;;;;;;;;;;;2096013;28;20723;-64
2022/02/04 06:49:45;;;;;;;;;;;;;;;;;;2093420;28;19999;-66
2022/02/04 06:50:47;;;;;;;;;;;;;;;;;;2099491;28;20027;-62
2022/02/04 06:51:53;;;;;;;;;;;;;;;;;;2098087;28;19936;-66
2022/02/04 06:52:57;;;;;;;;;;;;;;;;;;2095908;28;19925;-66
2022/02/04 06:54:03;;;;;;;;;;;;;;;;;;2090840;28;19971;-63
2022/02/04 06:55:08;;;;;;;;;;;;;;;;;;2097920;28;20075;-65
2022/02/04 06:56:15;;;;;;;;;;;;;;;;;;2098217;28;20643;-66
2022/02/04 06:57:21;;;;;;;;;;;;;;;;;;2092645;28;19959;-65
2022/02/04 06:58:24;;;;;;;;;;;;;;;;;;2098200;28;19930;-63
2022/02/04 06:59:28;;;;;;;;;;;;;;;;;;2093926;28;19929;-67
2022/02/04 07:00:29;;;;;;;;;;;;;;;;;;2093893;28;19936;-66
2022/02/04 07:01:34;;;;;;;;;;;;;;;;;;2097800;28;20063;-67
2022/02/04 07:02:37;;;;;;;;;;;;;;;;;;2097904;28;19925;-68
2022/02/04 07:03:38;;;;;;;;;;;;;;;;;;2091732;28;20067;-69
2022/02/04 07:04:43;;;;;;;;;;;;;;;;;;2098303;28;20024;-69
2022/02/04 07:05:56;;;;;;;;;;;;;;;;;;2096263;28;19929;-63
2022/02/04 07:07:02;;;;;;;;;;;;;;;;;;2094851;28;19936;-65
2022/02/04 07:08:11;;;;;;;;;;;;;;;;;;2097324;28;19935;-69
2022/02/04 07:09:37;;;;;;;;;;;;;;;;;;2092385;28;19980;-69
2022/02/04 07:13:21;;;;;;;;;;;;;;;;;;2091128;28;20048;-65
2022/02/04 07:14:40;;;;;;;;;;;;;;;;;;2095793;28;19952;-65
2022/02/04 07:19:51;;;;;;;;;;;;;;;;;;2092170;28;19945;-69
2022/02/04 07:20:52;;;;;;;;;;;;;;;;;;2092401;28;20764;-66
2022/02/04 07:21:56;;;;;;;;;;;;;;;;;;2091569;28;20023;-62
2022/02/04 07:22:59;;;;;;;;;;;;;;;;;;2091826;28;19929;-64
2022/02/04 07:24:00;;;;;;;;;;;;;;;;;;2095179;28;20086;-68
2022/02/04 07:25:03;;;;;;;;;;;;;;;;;;2090572;28;20631;-63
2022/02/04 07:26:05;;;;;;;;;;;;;;;;;;2095132;28;19932;-61
2022/02/04 07:27:09;;;;;;;;;;;;;;;;;;2096700;28;20745;-67
2022/02/04 07:28:12;;;;;;;;;;;;;;;;;;2091846;28;19925;-61
2022/02/04 07:29:16;;;;;;;;;;;;;;;;;;2090951;28;19951;-63
2022/02/04 07:30:19;;;;;;;;;;;;;;;;;;2091718;28;20747;-69
2022/02/04 07:31:21;;;;;;;;;;;;;;;;;;2090704;28;19929;-62
2022/02/04 07:32:33;;;;;;;;;;;;;;;;;;2092202;28;19959;-67
2022/02/04 07:33:44;;;;;;;;;;;;;;;;;;2091733;28;19935;-63
2022/02/04 07:41:08;;;;;;;;;;;;;;;;;;2095285;28;19929;-64
2022/02/04 07:42:11;;;;;;;;;;;;;;;;;;2096246;28;19931;-63
2022/02/04 07:43:13;;;;;;;;;;;;;;;;;;2092166;28;19925;-62
2022/02/04 07:44:16;;;;;;;;;;;;;;;;;;2098723;28;20056;-64
2022/02/04 07:45:19;;;;;;;;;;;;;;;;;;2098416;28;19929;-66
2022/02/04 07:46:22;;;;;;;;;;;;;;;;;;2099639;28;19929;-65
2022/02/04 07:47:24;;;;;;;;;;;;;;;;;;2097944;28;19929;-66
2022/02/04 07:48:28;;;;;;;;;;;;;;;;;;2095432;28;20060;-62
2022/02/04 07:49:32;;;;;;;;;;;;;;;;;;2100656;28;20649;-63
2022/02/04 07:50:35;;;;;;;;;;;;;;;;;;2100145;28;19936;-66
2022/02/04 07:51:37;;;;;;;;;;;;;;;;;;2094280;28;19929;-64
2022/02/04 07:52:40;;;;;;;;;;;;;;;;;;2092518;28;19929;-64
2022/02/04 07:53:43;;;;;;;;;;;;;;;;;;2092872;28;20756;-61
2022/02/04 07:54:49;;;;;;;;;;;;;;;;;;2097601;28;20006;-63
2022/02/04 07:55:51;;;;;;;;;;;;;;;;;;2092682;28;19991;-62
2022/02/04 07:56:56;;;;;;;;;;;;;;;;;;2094644;28;19925;-64
2022/02/04 07:58:00;;;;;;;;;;;;;;;;;;2093815;28;19979;-64
2022/02/04 07:59:08;;;;;;;;;;;;;;;;;;2099286;28;20007;-67
2022/02/04 08:00:16;;;;;;;;;;;;;;;;;;2092845;28;19929;-62
2022/02/04 08:01:26;;;;;;;;;;;;;;;;;;2098248;28;19925;-61
2022/02/04 08:02:28;;;;;;;;;;;;;;;;;;2092170;28;19929;-66
2022/02/04 08:03:41;;;;;;;;;;;;;;;;;;2097406;28;19935;-65
2022/02/04 08:04:44;;;;;;;;;;;;;;;;;;2097891;28;19936;-62
2022/02/04 08:05:52;;;;;;;;;;;;;;;;;;2097515;28;19929;-61
2022/02/04 08:07:09;;;;;;;;;;;;;;;;;;2099722;28;19925;-61
2022/02/04 08:08:18;;;;;;;;;;;;;;;;;;2099649;28;20054;-61
2022/02/04 08:09:35;;;;;;;;;;;;;;;;;;2096441;28;19995;-66
2022/02/04 08:11:07;;;;;;;;;;;;;;;;;;2091836;28;20062;-63
2022/02/04 08:14:48;;;;;;;;;;;;;;;;;;2094816;28;19929;-66
2022/02/04 08:16:38;;;;;;;;;;;;;;;;;;2096505;28;19925;-64
2022/02/04 08:21:21;;;;;;;;;;;;;;;;;;2097658;28;20874;-63
2022/02/04 08:35:29;;;;;;;;;;;;;;;;;;2099910;28;19936;-61
2022/02/04 08:37:03;;;;;;;;;;;;;;;;;;2094446;28;20733;-65
2022/02/04 08:55:42;;;;;;;;;;;;;;;;;;2098236;28;19928;-68
2022/02/04 08:58:57;;;;;;;;;;;;;;;;;;2099195;28;19931;-64
2022/02/04 09:00:31;;;;;;;;;;;;;;;;;;2099291;28;19929;-64
2022/02/04 09:02:02;;;;;;;;;;;;;;;;;;2094741;28;19932;-66
2022/02/04 09:04:05;;;;;;;;;;;;;;;;;;2099246;28;19935;-70
2022/02/04 09:05:15;;;;;;;;;;;;;;;;;;2093046;28;19937;-64
2022/02/04 09:06:40;;;;;;;;;;;;;;;;;;2100265;28;20161;-62
2022/02/04 09:09:45;;;;;;;;;;;;;;;;;;2099658;28;20003;-62
2022/02/04 09:11:11;;;;;;;;;;;;;;;;;;2093801;28;19929;-61
2022/02/04 09:17:31;;;;;;;;;;;;;;;;;;2099519;28;20675;-62
2022/02/04 09:18:50;;;;;;;;;;;;;;;;;;2093252;28;19980;-62
2022/02/04 09:20:27;;;;;;;;;;;;;;;;;;2095737;28;19925;-68
2022/02/04 09:22:16;;;;;;;;;;;;;;;;;;2091531;28;19960;-61
2022/02/04 09:23:14;;;;;;;;;;;;;;;;;;2097226;28;19933;-62
2022/02/04 09:24:25;;;;;;;;;;;;;;;;;;2091779;28;19929;-62
2022/02/04 09:25:30;;;;;;;;;;;;;;;;;;2093877;28;22083;-63
2022/02/04 09:26:47;;;;;;;;;;;;;;;;;;2098814;28;19925;-63
2022/02/04 09:27:49;;;;;;;;;;;;;;;;;;2099727;28;19936;-62
2022/02/04 09:29:02;;;;;;;;;;;;;;;;;;2094403;28;20095;-64
2022/02/04 09:30:17;;;;;;;;;;;;;;;;;;2094076;28;19929;-70
2022/02/04 09:31:28;;;;;;;;;;;;;;;;;;2096779;28;19929;-67
2022/02/04 09:32:46;;;;;;;;;;;;;;;;;;2093832;28;19929;-68
2022/02/04 09:33:59;;;;;;;;;;;;;;;;;;2099073;28;19924;-69
2022/02/04 09:35:06;;;;;;;;;;;;;;;;;;2099191;28;19929;-69
2022/02/04 09:36:16;;;;;;;;;;;;;;;;;;2098134;28;20684;-65
2022/02/04 09:37:26;;;;;;;;;;;;;;;;;;2096513;28;19931;-67
2022/02/04 09:38:37;;;;;;;;;;;;;;;;;;2091749;28;19929;-66
2022/02/04 09:39:44;;;;;;;;;;;;;;;;;;2095375;28;19932;-67
2022/02/04 09:40:49;;;;;;;;;;;;;;;;;;2094493;28;20080;-66
2022/02/04 09:41:58;;;;;;;;;;;;;;;;;;2099475;28;20659;-65
2022/02/04 09:43:05;;;;;;;;;;;;;;;;;;2098272;28;20707;-68
2022/02/04 09:44:12;;;;;;;;;;;;;;;;;;2094267;28;20736;-66
2022/02/04 09:45:16;;;;;;;;;;;;;;;;;;2100028;28;20055;-65
2022/02/04 09:46:20;;;;;;;;;;;;;;;;;;2099200;28;20810;-71
2022/02/04 09:47:25;;;;;;;;;;;;;;;;;;2100597;28;19928;-67
2022/02/04 09:48:31;;;;;;;;;;;;;;;;;;2096589;28;20003;-67
2022/02/04 09:49:42;;;;;;;;;;;;;;;;;;2096427;28;20792;-68
2022/02/04 09:50:48;;;;;;;;;;;;;;;;;;2091690;28;20715;-68
2022/02/04 10:07:05;;;;;;;;;;;;;;;;;;2092129;28;19929;-67
2022/02/04 10:08:59;;;;;;;;;;;;;;;;;;2096775;28;20668;-68
2022/02/04 10:10:36;;;;;;;;;;;;;;;;;;2095187;28;20006;-70
2022/02/04 10:11:58;;;;;;;;;;;;;;;;;;2092337;28;20667;-66
2022/02/04 10:12:40;;;;;;;;;;;;;;;;;;2092396;28;20762;-66
2022/02/04 10:13:57;;;;;;;;;;;;;;;;;;2100386;28;19933;-69
2022/02/04 10:15:09;;;;;;;;;;;;;;;;;;2099676;28;19929;-67
2022/02/04 10:16:36;;;;;;;;;;;;;;;;;;2100025;28;20046;-67
2022/02/04 10:17:40;;;;;;;;;;;;;;;;;;2095179;28;19932;-66
2022/02/04 10:18:50;;;;;;;;;;;;;;;;;;2091380;28;20078;-67
2022/02/04 10:20:01;;;;;;;;;;;;;;;;;;2091510;28;19925;-68
2022/02/04 10:21:11;;;;;;;;;;;;;;;;;;2091784;28;19929;-67
2022/02/04 10:22:19;;;;;;;;;;;;;;;;;;2090887;28;20775;-69
2022/02/04 10:23:20;;;;;;;;;;;;;;;;;;2098417;28;20046;-70
2022/02/04 10:24:22;;;;;;;;;;;;;;;;;;2100418;28;19936;-70
2022/02/04 10:25:24;;;;;;;;;;;;;;;;;;2094652;28;19936;-67
2022/02/04 10:26:25;;;;;;;;;;;;;;;;;;2092096;28;19929;-71
2022/02/04 10:27:27;;;;;;;;;;;;;;;;;;2096971;28;19928;-68
2022/02/04 10:28:33;;;;;;;;;;;;;;;;;;2100343;28;19932;-69
2022/02/04 10:29:35;;;;;;;;;;;;;;;;;;2093881;28;19936;-65
2022/02/04 10:30:36;;;;;;;;;;;;;;;;;;2093457;28;19929;-64
2022/02/04 10:31:45;;;;;;;;;;;;;;;;;;2098296;28;19936;-69
2022/02/04 10:32:49;;;;;;;;;;;;;;;;;;2091125;28;20814;-65
2022/02/04 10:33:52;;;;;;;;;;;;;;;;;;2092329;28;19976;-69
2022/02/04 10:34:58;;;;;;;;;;;;;;;;;;2095951;28;20775;-67
2022/02/04 10:36:00;;;;;;;;;;;;;;;;;;2092391;28;20776;-67
2022/02/04 10:37:17;;;;;;;;;;;;;;;;;;2093840;28;20784;-66
2022/02/04 10:38:25;;;;;;;;;;;;;;;;;;2093438;28;19999;-68
2022/02/04 10:40:00;;;;;;;;;;;;;;;;;;2091772;28;19932;-67
2022/02/04 10:41:09;;;;;;;;;;;;;;;;;;2096069;28;19928;-65
2022/02/04 10:44:21;;;;;;;;;;;;;;;;;;2093260;28;20059;-64
2022/02/04 10:45:18;;;;;;;;;;;;;;;;;;2090650;28;19935;-67
2022/02/04 10:46:12;;;;;;;;;;;;;;;;;;2091566;28;19936;-67
2022/02/04 10:47:13;;;;;;;;;;;;;;;;;;2096922;28;19931;-65
2022/02/04 10:48:31;;;;;;;;;;;;;;;;;;2098489;28;19928;-66
2022/02/04 10:51:32;;;;;;;;;;;;;;;;;;2098770;28;20624;-64
2022/02/04 10:53:04;;;;;;;;;;;;;;;;;;2093460;28;20679;-68
2022/02/04 10:54:24;;;;;;;;;;;;;;;;;;2093453;28;20649;-68
2022/02/04 10:58:59;;;;;;;;;;;;;;;;;;2100306;28;20026;-67
2022/02/04 11:03:11;;;;;;;;;;;;;;;;;;2093900;28;20019;-68
2022/02/04 11:04:37;;;;;;;;;;;;;;;;;;2092315;28;19933;-71
2022/02/04 11:05:52;;;;;;;;;;;;;;;;;;2097459;28;19995;-61
2022/02/04 11:08:47;;;;;;;;;;;;;;;;;;2097213;28;19925;-67
2022/02/04 11:21:58;;;;;;;;;;;;;;;;;;2090653;28;20003;-62
2022/02/04 11:30:54;;;;;;;;;;;;;;;;;;2093646;28;20643;-66
2022/02/04 11:32:00;;;;;;;;;;;;;;;;;;2097483;28;20051;-65
2022/02/04 11:34:37;;;;;;;;;;;;;;;;;;2093612;28;19926;-68
2022/02/04 11:35:42;;;;;;;;;;;;;;;;;;2095299;28;20856;-66
2022/02/04 11:36:49;;;;;;;;;;;;;;;;;;2097258;28;19929;-66
2022/02/04 11:47:55;;;;;;;;;;;;;;;;;;2092978;28;19936;-68
2022/02/04 11:51:13;;;;;;;;;;;;;;;;;;2095496;28;20042;-70
2022/02/04 11:52:18;;;;;;;;;;;;;;;;;;2099325;28;19924;-71
2022/02/04 11:53:26;;;;;;;;;;;;;;;;;;2097230;28;20039;-62
2022/02/04 11:55:29;;;;;;;;;;;;;;;;;;2091575;28;19959;-70
2022/02/04 11:56:31;;;;;;;;;;;;;;;;;;2094358;28;20106;-73
2022/02/04 11:57:34;;;;;;;;;;;;;;;;;;2093335;28;19929;-72
2022/02/04 11:58:36;;;;;;;;;;;;;;;;;;2093767;28;20054;-73
2022/02/04 11:59:38;;;;;;;;;;;;;;;;;;2092287;28;19929;-63
2022/02/04 12:00:40;;;;;;;;;;;;;;;;;;2096135;28;19929;-65
2022/02/04 12:01:43;;;;;;;;;;;;;;;;;;2096169;28;19936;-66
2022/02/04 12:02:45;;;;;;;;;;;;;;;;;;2095253;28;20652;-65
2022/02/04 12:03:47;;;;;;;;;;;;;;;;;;2092806;28;19929;-65
2022/02/04 12:04:49;;;;;;;;;;;;;;;;;;2098383;28;19925;-67
2022/02/04 12:05:52;;;;;;;;;;;;;;;;;;2091723;28;20519;-66
2022/02/04 12:06:54;;;;;;;;;;;;;;;;;;2096217;28;19936;-70
2022/02/04 12:07:55;;;;;;;;;;;;;;;;;;2095519;28;19929;-67
2022/02/04 12:08:58;;;;;;;;;;;;;;;;;;2096684;28;19929;-63
2022/02/04 12:10:01;;;;;;;;;;;;;;;;;;2099802;28;19929;-67
2022/02/04 12:11:02;;;;;;;;;;;;;;;;;;2100755;28;20825;-72
2022/02/04 12:12:05;;;;;;;;;;;;;;;;;;2099926;28;20774;-66
2022/02/04 12:13:10;;;;;;;;;;;;;;;;;;2099762;28;19970;-66
2022/02/04 12:14:13;;;;;;;;;;;;;;;;;;2098368;28;20748;-66
2022/02/04 12:15:16;;;;;;;;;;;;;;;;;;2092800;28;20635;-63
2022/02/04 12:16:19;;;;;;;;;;;;;;;;;;2094753;28;20003;-71
2022/02/04 12:17:22;;;;;;;;;;;;;;;;;;2098344;28;19929;-69
2022/02/04 12:18:26;;;;;;;;;;;;;;;;;;2093720;28;19929;-69
2022/02/04 12:19:29;;;;;;;;;;;;;;;;;;2093357;28;19933;-69
2022/02/04 12:20:31;;;;;;;;;;;;;;;;;;2095893;28;19959;-68
2022/02/04 12:21:34;;;;;;;;;;;;;;;;;;2097576;28;20727;-62
2022/02/04 12:22:37;;;;;;;;;;;;;;;;;;2098764;28;19996;-62
2022/02/04 12:23:47;;;;;;;;;;;;;;;;;;2098003;28;20553;-66
2022/02/04 12:24:50;;;;;;;;;;;;;;;;;;2093490;28;20759;-66
2022/02/04 12:25:53;;;;;;;;;;;;;;;;;;2095101;28;19936;-67
2022/02/04 12:26:55;;;;;;;;;;;;;;;;;;2096768;28;19939;-67
2022/02/04 12:28:00;;;;;;;;;;;;;;;;;;2099241;28;20908;-66
2022/02/04 12:29:06;;;;;;;;;;;;;;;;;;2091688;28;19925;-67
2022/02/04 12:30:08;;;;;;;;;;;;;;;;;;2097131;28;20675;-65
2022/02/04 12:31:09;;;;;;;;;;;;;;;;;;2096156;28;19929;-68
2022/02/04 12:32:12;;;;;;;;;;;;;;;;;;2092659;28;20823;-65
2022/02/04 12:33:15;;;;;;;;;;;;;;;;;;2093159;28;20020;-66
2022/02/04 12:34:21;;;;;;;;;;;;;;;;;;2096025;28;19983;-65
2022/02/04 12:35:23;;;;;;;;;;;;;;;;;;2099753;28;19963;-65
2022/02/04 12:36:26;;;;;;;;;;;;;;;;;;2092526;28;19925;-63
2022/02/04 12:37:28;;;;;;;;;;;;;;;;;;2091097;28;20736;-67
2022/02/04 12:38:32;;;;;;;;;;;;;;;;;;2090578;28;20026;-62
2022/02/04 12:39:34;;;;;;;;;;;;;;;;;;2096882;28;19936;-62
2022/02/04 12:40:37;;;;;;;;;;;;;;;;;;2103480;28;19924;-67
2022/02/04 12:41:39;;;;;;;;;;;;;;;;;;2092196;28;19933;-63